sensor_id;sensor_type;location;lat;lon;timestamp;P1;durP1;ratioP1;P2;durP2;ratioP2
27225;SDS011;14732;51.074;3.788;2022-08-19T00:00:45;40.03;;;26.58;;
27225;SDS011;14732;51.074;3.788;2022-08-19T00:03:11;39.22;;;25.77;;
27225;SDS011;14732;51.074;3.788;2022-08-19T00:05:36;37.70;;;24.33;;
27225;SDS011;14732;51.074;3.788;2022-08-19T00:08:02;37.63;;;23.75;;
27225;SDS011;14732;51.074;3.788;2022-08-19T00:10:28;39.58;;;24.65;;
27225;SDS011;14732;51.074;3.788;2022-08-19T00:12:54;41.47;;;24.50;;
27225;SDS011;14732;51.074;3.788;2022-08-19T00:15:20;41.40;;;23.42;;
27225;SDS011;14732;51.074;3.788;2022-08-19T00:17:47;42.95;;;25.42;;
27225;SDS011;14732;51.074;3.788;2022-08-19T00:20:14;39.72;;;24.55;;
27225;SDS011;14732;51.074;3.788;2022-08-19T00:22:44;39.17;;;24.25;;
27225;SDS011;14732;51.074;3.788;2022-08-19T00:25:12;35.97;;;24.33;;
27225;SDS011;14732;51.074;3.788;2022-08-19T00:27:38;38.35;;;24.60;;
27225;SDS011;14732;51.074;3.788;2022-08-19T00:30:05;40.20;;;24.88;;
27225;SDS011;14732;51.074;3.788;2022-08-19T00:32:32;45.10;;;24.88;;
27225;SDS011;14732;51.074;3.788;2022-08-19T00:34:59;48.90;;;27.77;;
27225;SDS011;14732;51.074;3.788;2022-08-19T00:37:25;45.17;;;27.83;;
27225;SDS011;14732;51.074;3.788;2022-08-19T00:39:51;47.75;;;28.23;;
27225;SDS011;14732;51.074;3.788;2022-08-19T00:42:18;47.90;;;27.58;;
27225;SDS011;14732;51.074;3.788;2022-08-19T00:44:45;45.33;;;27.30;;
27225;SDS011;14732;51.074;3.788;2022-08-19T00:47:11;41.28;;;25.30;;
27225;SDS011;14732;51.074;3.788;2022-08-19T00:49:43;38.72;;;25.13;;
27225;SDS011;14732;51.074;3.788;2022-08-19T00:52:38;44.15;;;24.98;;
27225;SDS011;14732;51.074;3.788;2022-08-19T00:55:05;47.55;;;27.35;;
27225;SDS011;14732;51.074;3.788;2022-08-19T00:57:36;43.53;;;25.90;;
27225;SDS011;14732;51.074;3.788;2022-08-19T01:00:06;42.78;;;26.02;;
27225;SDS011;14732;51.074;3.788;2022-08-19T01:02:36;44.63;;;25.48;;
27225;SDS011;14732;51.074;3.788;2022-08-19T01:05:05;43.45;;;25.00;;
27225;SDS011;14732;51.074;3.788;2022-08-19T01:07:34;43.47;;;25.65;;
27225;SDS011;14732;51.074;3.788;2022-08-19T01:10:02;48.63;;;25.60;;
27225;SDS011;14732;51.074;3.788;2022-08-19T01:12:28;45.42;;;24.13;;
27225;SDS011;14732;51.074;3.788;2022-08-19T01:14:55;42.78;;;24.30;;
27225;SDS011;14732;51.074;3.788;2022-08-19T01:17:21;41.80;;;24.55;;
27225;SDS011;14732;51.074;3.788;2022-08-19T01:19:47;36.03;;;22.02;;
27225;SDS011;14732;51.074;3.788;2022-08-19T01:24:45;39.38;;;21.45;;
27225;SDS011;14732;51.074;3.788;2022-08-19T01:27:10;36.97;;;22.10;;
27225;SDS011;14732;51.074;3.788;2022-08-19T01:29:37;40.97;;;22.50;;
27225;SDS011;14732;51.074;3.788;2022-08-19T01:32:05;38.47;;;21.83;;
27225;SDS011;14732;51.074;3.788;2022-08-19T01:34:32;44.42;;;22.60;;
27225;SDS011;14732;51.074;3.788;2022-08-19T01:36:59;36.80;;;20.42;;
27225;SDS011;14732;51.074;3.788;2022-08-19T01:39:27;38.78;;;21.65;;
27225;SDS011;14732;51.074;3.788;2022-08-19T01:41:53;35.75;;;21.30;;
27225;SDS011;14732;51.074;3.788;2022-08-19T01:44:21;32.30;;;21.13;;
27225;SDS011;14732;51.074;3.788;2022-08-19T01:46:49;38.15;;;21.98;;
27225;SDS011;14732;51.074;3.788;2022-08-19T01:49:16;40.00;;;22.17;;
27225;SDS011;14732;51.074;3.788;2022-08-19T01:51:45;40.55;;;21.73;;
27225;SDS011;14732;51.074;3.788;2022-08-19T01:54:13;36.47;;;21.05;;
27225;SDS011;14732;51.074;3.788;2022-08-19T01:56:40;38.08;;;20.60;;
27225;SDS011;14732;51.074;3.788;2022-08-19T01:59:08;40.45;;;21.08;;
27225;SDS011;14732;51.074;3.788;2022-08-19T02:01:45;36.80;;;20.58;;
27225;SDS011;14732;51.074;3.788;2022-08-19T02:04:11;35.90;;;20.35;;
27225;SDS011;14732;51.074;3.788;2022-08-19T02:06:36;36.83;;;20.25;;
27225;SDS011;14732;51.074;3.788;2022-08-19T02:09:05;34.72;;;20.65;;
27225;SDS011;14732;51.074;3.788;2022-08-19T02:11:33;35.40;;;19.38;;
27225;SDS011;14732;51.074;3.788;2022-08-19T02:14:02;37.00;;;19.67;;
27225;SDS011;14732;51.074;3.788;2022-08-19T02:18:56;41.00;;;19.55;;
27225;SDS011;14732;51.074;3.788;2022-08-19T02:21:25;38.55;;;19.00;;
27225;SDS011;14732;51.074;3.788;2022-08-19T02:23:51;35.30;;;20.15;;
27225;SDS011;14732;51.074;3.788;2022-08-19T02:26:17;36.55;;;19.58;;
27225;SDS011;14732;51.074;3.788;2022-08-19T02:28:44;37.17;;;19.33;;
27225;SDS011;14732;51.074;3.788;2022-08-19T02:31:14;40.75;;;19.38;;
27225;SDS011;14732;51.074;3.788;2022-08-19T02:33:44;41.83;;;19.90;;
27225;SDS011;14732;51.074;3.788;2022-08-19T02:36:12;38.42;;;20.13;;
27225;SDS011;14732;51.074;3.788;2022-08-19T02:38:39;37.13;;;19.13;;
27225;SDS011;14732;51.074;3.788;2022-08-19T02:41:11;37.55;;;19.38;;
27225;SDS011;14732;51.074;3.788;2022-08-19T02:43:42;37.80;;;18.92;;
27225;SDS011;14732;51.074;3.788;2022-08-19T02:46:18;36.28;;;19.98;;
27225;SDS011;14732;51.074;3.788;2022-08-19T02:48:49;38.25;;;20.45;;
27225;SDS011;14732;51.074;3.788;2022-08-19T02:51:17;35.58;;;19.08;;
27225;SDS011;14732;51.074;3.788;2022-08-19T02:53:44;39.85;;;20.10;;
27225;SDS011;14732;51.074;3.788;2022-08-19T02:56:10;38.58;;;19.95;;
27225;SDS011;14732;51.074;3.788;2022-08-19T02:58:36;37.65;;;19.65;;
27225;SDS011;14732;51.074;3.788;2022-08-19T03:01:01;39.33;;;19.67;;
27225;SDS011;14732;51.074;3.788;2022-08-19T03:03:27;42.38;;;20.23;;
27225;SDS011;14732;51.074;3.788;2022-08-19T03:06:02;45.05;;;20.15;;
27225;SDS011;14732;51.074;3.788;2022-08-19T03:08:29;38.75;;;19.08;;
27225;SDS011;14732;51.074;3.788;2022-08-19T03:10:55;45.85;;;20.23;;
27225;SDS011;14732;51.074;3.788;2022-08-19T03:13:21;43.35;;;19.77;;
27225;SDS011;14732;51.074;3.788;2022-08-19T03:15:47;42.63;;;21.00;;
27225;SDS011;14732;51.074;3.788;2022-08-19T03:18:13;41.53;;;20.02;;
27225;SDS011;14732;51.074;3.788;2022-08-19T03:20:46;39.38;;;20.48;;
27225;SDS011;14732;51.074;3.788;2022-08-19T03:23:13;40.67;;;21.25;;
27225;SDS011;14732;51.074;3.788;2022-08-19T03:25:41;39.05;;;19.73;;
27225;SDS011;14732;51.074;3.788;2022-08-19T03:28:13;43.67;;;20.33;;
27225;SDS011;14732;51.074;3.788;2022-08-19T03:30:40;43.92;;;20.38;;
27225;SDS011;14732;51.074;3.788;2022-08-19T03:33:07;36.30;;;19.20;;
27225;SDS011;14732;51.074;3.788;2022-08-19T03:35:34;37.40;;;19.13;;
27225;SDS011;14732;51.074;3.788;2022-08-19T03:38:02;38.85;;;18.58;;
27225;SDS011;14732;51.074;3.788;2022-08-19T03:40:31;35.28;;;17.95;;
27225;SDS011;14732;51.074;3.788;2022-08-19T03:42:59;39.47;;;18.80;;
27225;SDS011;14732;51.074;3.788;2022-08-19T03:45:25;33.72;;;17.17;;
27225;SDS011;14732;51.074;3.788;2022-08-19T03:47:52;32.10;;;17.05;;
27225;SDS011;14732;51.074;3.788;2022-08-19T03:50:18;31.27;;;16.15;;
27225;SDS011;14732;51.074;3.788;2022-08-19T03:52:47;34.38;;;17.05;;
27225;SDS011;14732;51.074;3.788;2022-08-19T03:55:15;33.53;;;16.52;;
27225;SDS011;14732;51.074;3.788;2022-08-19T03:57:41;29.58;;;15.45;;
27225;SDS011;14732;51.074;3.788;2022-08-19T04:00:07;34.58;;;17.40;;
27225;SDS011;14732;51.074;3.788;2022-08-19T04:02:34;29.88;;;15.45;;
27225;SDS011;14732;51.074;3.788;2022-08-19T04:04:59;32.33;;;16.42;;
27225;SDS011;14732;51.074;3.788;2022-08-19T04:07:25;33.90;;;16.17;;
27225;SDS011;14732;51.074;3.788;2022-08-19T04:09:51;30.92;;;15.13;;
27225;SDS011;14732;51.074;3.788;2022-08-19T04:12:17;33.92;;;15.80;;
27225;SDS011;14732;51.074;3.788;2022-08-19T04:14:45;29.65;;;15.80;;
27225;SDS011;14732;51.074;3.788;2022-08-19T04:17:10;31.52;;;14.60;;
27225;SDS011;14732;51.074;3.788;2022-08-19T04:19:37;28.50;;;14.57;;
27225;SDS011;14732;51.074;3.788;2022-08-19T04:22:03;35.40;;;14.35;;
27225;SDS011;14732;51.074;3.788;2022-08-19T04:24:29;31.92;;;14.45;;
27225;SDS011;14732;51.074;3.788;2022-08-19T04:26:55;27.20;;;13.93;;
27225;SDS011;14732;51.074;3.788;2022-08-19T04:29:22;30.85;;;14.43;;
27225;SDS011;14732;51.074;3.788;2022-08-19T04:31:50;27.05;;;14.60;;
27225;SDS011;14732;51.074;3.788;2022-08-19T04:34:18;30.15;;;14.68;;
27225;SDS011;14732;51.074;3.788;2022-08-19T04:36:49;28.05;;;13.93;;
27225;SDS011;14732;51.074;3.788;2022-08-19T04:39:17;27.27;;;13.82;;
27225;SDS011;14732;51.074;3.788;2022-08-19T04:41:44;30.67;;;14.75;;
27225;SDS011;14732;51.074;3.788;2022-08-19T04:44:32;30.45;;;14.70;;
27225;SDS011;14732;51.074;3.788;2022-08-19T04:46:59;25.70;;;13.93;;
27225;SDS011;14732;51.074;3.788;2022-08-19T04:49:27;29.13;;;13.40;;
27225;SDS011;14732;51.074;3.788;2022-08-19T04:51:53;36.30;;;14.20;;
27225;SDS011;14732;51.074;3.788;2022-08-19T04:54:20;24.67;;;13.27;;
27225;SDS011;14732;51.074;3.788;2022-08-19T04:56:48;32.10;;;14.20;;
27225;SDS011;14732;51.074;3.788;2022-08-19T04:59:15;35.03;;;14.60;;
27225;SDS011;14732;51.074;3.788;2022-08-19T05:01:42;26.60;;;14.35;;
27225;SDS011;14732;51.074;3.788;2022-08-19T05:04:08;31.70;;;13.75;;
27225;SDS011;14732;51.074;3.788;2022-08-19T05:06:34;22.80;;;13.15;;
27225;SDS011;14732;51.074;3.788;2022-08-19T05:09:03;24.35;;;12.90;;
27225;SDS011;14732;51.074;3.788;2022-08-19T05:11:31;24.10;;;13.13;;
27225;SDS011;14732;51.074;3.788;2022-08-19T05:13:59;24.83;;;12.93;;
27225;SDS011;14732;51.074;3.788;2022-08-19T05:16:25;33.50;;;13.23;;
27225;SDS011;14732;51.074;3.788;2022-08-19T05:18:52;23.25;;;12.07;;
27225;SDS011;14732;51.074;3.788;2022-08-19T05:21:38;33.50;;;13.13;;
27225;SDS011;14732;51.074;3.788;2022-08-19T05:24:23;26.65;;;12.45;;
27225;SDS011;14732;51.074;3.788;2022-08-19T05:26:50;23.45;;;11.95;;
27225;SDS011;14732;51.074;3.788;2022-08-19T05:29:18;24.13;;;12.15;;
27225;SDS011;14732;51.074;3.788;2022-08-19T05:31:45;27.83;;;12.40;;
27225;SDS011;14732;51.074;3.788;2022-08-19T05:34:14;23.77;;;12.38;;
27225;SDS011;14732;51.074;3.788;2022-08-19T05:36:41;23.33;;;11.60;;
27225;SDS011;14732;51.074;3.788;2022-08-19T05:39:09;20.92;;;11.35;;
27225;SDS011;14732;51.074;3.788;2022-08-19T05:41:48;23.30;;;10.73;;
27225;SDS011;14732;51.074;3.788;2022-08-19T05:44:17;24.75;;;11.20;;
27225;SDS011;14732;51.074;3.788;2022-08-19T05:46:44;20.35;;;10.88;;
27225;SDS011;14732;51.074;3.788;2022-08-19T05:49:12;22.38;;;10.98;;
27225;SDS011;14732;51.074;3.788;2022-08-19T05:51:38;25.35;;;11.00;;
27225;SDS011;14732;51.074;3.788;2022-08-19T05:54:04;26.55;;;11.43;;
27225;SDS011;14732;51.074;3.788;2022-08-19T05:56:32;25.80;;;12.18;;
27225;SDS011;14732;51.074;3.788;2022-08-19T05:59:01;25.08;;;11.82;;
27225;SDS011;14732;51.074;3.788;2022-08-19T06:01:27;23.88;;;12.25;;
27225;SDS011;14732;51.074;3.788;2022-08-19T06:03:53;22.42;;;12.27;;
27225;SDS011;14732;51.074;3.788;2022-08-19T06:06:19;25.73;;;11.75;;
27225;SDS011;14732;51.074;3.788;2022-08-19T06:08:45;23.35;;;11.50;;
27225;SDS011;14732;51.074;3.788;2022-08-19T06:11:32;23.50;;;12.02;;
27225;SDS011;14732;51.074;3.788;2022-08-19T06:14:04;24.52;;;12.57;;
27225;SDS011;14732;51.074;3.788;2022-08-19T06:16:33;26.23;;;12.73;;
27225;SDS011;14732;51.074;3.788;2022-08-19T06:19:05;27.88;;;11.98;;
27225;SDS011;14732;51.074;3.788;2022-08-19T06:21:37;29.13;;;13.00;;
27225;SDS011;14732;51.074;3.788;2022-08-19T06:24:05;29.80;;;13.60;;
27225;SDS011;14732;51.074;3.788;2022-08-19T06:26:33;24.25;;;12.45;;
27225;SDS011;14732;51.074;3.788;2022-08-19T06:29:00;26.00;;;12.50;;
27225;SDS011;14732;51.074;3.788;2022-08-19T06:31:29;21.30;;;11.35;;
27225;SDS011;14732;51.074;3.788;2022-08-19T06:33:58;26.75;;;12.60;;
27225;SDS011;14732;51.074;3.788;2022-08-19T06:36:26;22.42;;;11.25;;
27225;SDS011;14732;51.074;3.788;2022-08-19T06:38:56;19.92;;;11.15;;
27225;SDS011;14732;51.074;3.788;2022-08-19T06:41:23;21.88;;;11.35;;
27225;SDS011;14732;51.074;3.788;2022-08-19T06:43:49;18.73;;;9.77;;
27225;SDS011;14732;51.074;3.788;2022-08-19T06:46:15;21.90;;;10.82;;
27225;SDS011;14732;51.074;3.788;2022-08-19T06:48:43;16.83;;;10.10;;
27225;SDS011;14732;51.074;3.788;2022-08-19T06:51:09;16.85;;;9.75;;
27225;SDS011;14732;51.074;3.788;2022-08-19T06:53:35;18.98;;;10.07;;
27225;SDS011;14732;51.074;3.788;2022-08-19T06:56:01;17.77;;;9.70;;
27225;SDS011;14732;51.074;3.788;2022-08-19T06:58:30;16.65;;;9.52;;
27225;SDS011;14732;51.074;3.788;2022-08-19T07:01:00;19.27;;;9.40;;
27225;SDS011;14732;51.074;3.788;2022-08-19T07:03:31;14.73;;;9.30;;
27225;SDS011;14732;51.074;3.788;2022-08-19T07:06:05;14.23;;;9.50;;
27225;SDS011;14732;51.074;3.788;2022-08-19T07:08:33;12.98;;;8.93;;
27225;SDS011;14732;51.074;3.788;2022-08-19T07:11:01;19.42;;;9.25;;
27225;SDS011;14732;51.074;3.788;2022-08-19T07:13:31;14.65;;;9.20;;
27225;SDS011;14732;51.074;3.788;2022-08-19T07:16:08;13.00;;;8.55;;
27225;SDS011;14732;51.074;3.788;2022-08-19T07:18:36;13.98;;;8.73;;
27225;SDS011;14732;51.074;3.788;2022-08-19T07:21:10;13.85;;;8.52;;
27225;SDS011;14732;51.074;3.788;2022-08-19T07:23:38;13.90;;;8.60;;
27225;SDS011;14732;51.074;3.788;2022-08-19T07:26:05;16.23;;;8.68;;
27225;SDS011;14732;51.074;3.788;2022-08-19T07:28:35;18.55;;;9.25;;
27225;SDS011;14732;51.074;3.788;2022-08-19T07:31:04;17.13;;;9.00;;
27225;SDS011;14732;51.074;3.788;2022-08-19T07:33:35;16.50;;;8.98;;
27225;SDS011;14732;51.074;3.788;2022-08-19T07:36:02;19.50;;;9.95;;
27225;SDS011;14732;51.074;3.788;2022-08-19T07:38:29;19.80;;;9.77;;
27225;SDS011;14732;51.074;3.788;2022-08-19T07:40:55;15.65;;;9.75;;
27225;SDS011;14732;51.074;3.788;2022-08-19T07:43:21;17.42;;;9.45;;
27225;SDS011;14732;51.074;3.788;2022-08-19T07:45:50;22.35;;;10.20;;
27225;SDS011;14732;51.074;3.788;2022-08-19T07:48:18;19.70;;;9.43;;
27225;SDS011;14732;51.074;3.788;2022-08-19T07:50:44;17.95;;;10.35;;
27225;SDS011;14732;51.074;3.788;2022-08-19T07:53:10;18.30;;;10.10;;
27225;SDS011;14732;51.074;3.788;2022-08-19T07:55:37;20.58;;;11.13;;
27225;SDS011;14732;51.074;3.788;2022-08-19T07:58:02;19.52;;;10.38;;
27225;SDS011;14732;51.074;3.788;2022-08-19T08:00:29;19.30;;;11.10;;
27225;SDS011;14732;51.074;3.788;2022-08-19T08:02:55;20.60;;;11.27;;
27225;SDS011;14732;51.074;3.788;2022-08-19T08:05:21;18.00;;;11.48;;
27225;SDS011;14732;51.074;3.788;2022-08-19T08:08:06;18.30;;;11.80;;
27225;SDS011;14732;51.074;3.788;2022-08-19T08:10:50;20.88;;;12.10;;
27225;SDS011;14732;51.074;3.788;2022-08-19T08:13:16;19.48;;;12.00;;
27225;SDS011;14732;51.074;3.788;2022-08-19T08:15:42;22.38;;;11.80;;
27225;SDS011;14732;51.074;3.788;2022-08-19T08:18:10;17.83;;;11.05;;
27225;SDS011;14732;51.074;3.788;2022-08-19T08:20:36;26.42;;;11.85;;
27225;SDS011;14732;51.074;3.788;2022-08-19T08:23:02;19.08;;;10.75;;
27225;SDS011;14732;51.074;3.788;2022-08-19T08:25:46;16.05;;;11.25;;
27225;SDS011;14732;51.074;3.788;2022-08-19T08:28:13;17.88;;;10.73;;
27225;SDS011;14732;51.074;3.788;2022-08-19T08:30:38;16.05;;;10.25;;
27225;SDS011;14732;51.074;3.788;2022-08-19T08:33:07;20.23;;;11.07;;
27225;SDS011;14732;51.074;3.788;2022-08-19T08:35:33;16.92;;;10.20;;
27225;SDS011;14732;51.074;3.788;2022-08-19T08:37:58;18.00;;;10.07;;
27225;SDS011;14732;51.074;3.788;2022-08-19T08:43:38;16.42;;;9.68;;
27225;SDS011;14732;51.074;3.788;2022-08-19T08:49:00;21.55;;;10.25;;
27225;SDS011;14732;51.074;3.788;2022-08-19T08:51:46;17.40;;;9.77;;
27225;SDS011;14732;51.074;3.788;2022-08-19T08:54:17;14.50;;;9.90;;
27225;SDS011;14732;51.074;3.788;2022-08-19T08:56:49;14.18;;;9.20;;
27225;SDS011;14732;51.074;3.788;2022-08-19T08:59:26;16.77;;;9.77;;
27225;SDS011;14732;51.074;3.788;2022-08-19T09:01:58;14.88;;;9.52;;
27225;SDS011;14732;51.074;3.788;2022-08-19T09:04:25;20.58;;;9.45;;
27225;SDS011;14732;51.074;3.788;2022-08-19T09:09:18;12.35;;;8.60;;
27225;SDS011;14732;51.074;3.788;2022-08-19T09:14:55;10.43;;;8.43;;
27225;SDS011;14732;51.074;3.788;2022-08-19T09:17:25;14.52;;;8.50;;
27225;SDS011;14732;51.074;3.788;2022-08-19T09:20:24;13.02;;;8.50;;
27225;SDS011;14732;51.074;3.788;2022-08-19T09:22:49;9.25;;;7.00;;
27225;SDS011;14732;51.074;3.788;2022-08-19T09:25:16;12.98;;;7.30;;
27225;SDS011;14732;51.074;3.788;2022-08-19T09:27:46;10.13;;;6.68;;
27225;SDS011;14732;51.074;3.788;2022-08-19T09:30:17;11.40;;;7.32;;
27225;SDS011;14732;51.074;3.788;2022-08-19T09:32:46;10.52;;;6.60;;
27225;SDS011;14732;51.074;3.788;2022-08-19T09:35:13;8.95;;;5.93;;
27225;SDS011;14732;51.074;3.788;2022-08-19T09:37:40;8.23;;;5.95;;
27225;SDS011;14732;51.074;3.788;2022-08-19T09:40:07;8.32;;;5.28;;
27225;SDS011;14732;51.074;3.788;2022-08-19T09:42:33;9.75;;;5.60;;
27225;SDS011;14732;51.074;3.788;2022-08-19T09:45:00;6.22;;;4.80;;
27225;SDS011;14732;51.074;3.788;2022-08-19T09:47:26;10.27;;;4.63;;
27225;SDS011;14732;51.074;3.788;2022-08-19T09:49:51;7.82;;;4.05;;
27225;SDS011;14732;51.074;3.788;2022-08-19T09:52:17;6.63;;;4.47;;
27225;SDS011;14732;51.074;3.788;2022-08-19T09:54:43;4.60;;;4.00;;
27225;SDS011;14732;51.074;3.788;2022-08-19T09:57:09;4.13;;;3.50;;
27225;SDS011;14732;51.074;3.788;2022-08-19T09:59:34;5.38;;;3.53;;
27225;SDS011;14732;51.074;3.788;2022-08-19T10:02:01;3.35;;;3.05;;
27225;SDS011;14732;51.074;3.788;2022-08-19T10:04:27;3.78;;;3.03;;
27225;SDS011;14732;51.074;3.788;2022-08-19T10:07:13;3.80;;;3.20;;
27225;SDS011;14732;51.074;3.788;2022-08-19T10:09:39;5.97;;;3.05;;
27225;SDS011;14732;51.074;3.788;2022-08-19T10:12:06;6.45;;;2.58;;
27225;SDS011;14732;51.074;3.788;2022-08-19T10:14:32;4.28;;;2.67;;
27225;SDS011;14732;51.074;3.788;2022-08-19T10:16:58;3.72;;;3.40;;
27225;SDS011;14732;51.074;3.788;2022-08-19T10:19:25;6.32;;;4.07;;
27225;SDS011;14732;51.074;3.788;2022-08-19T10:21:57;8.15;;;3.20;;
27225;SDS011;14732;51.074;3.788;2022-08-19T10:24:23;10.40;;;3.67;;
27225;SDS011;14732;51.074;3.788;2022-08-19T10:26:49;4.15;;;3.50;;
27225;SDS011;14732;51.074;3.788;2022-08-19T10:29:14;6.13;;;4.57;;
27225;SDS011;14732;51.074;3.788;2022-08-19T10:31:41;4.45;;;3.60;;
27225;SDS011;14732;51.074;3.788;2022-08-19T10:34:07;4.55;;;3.35;;
27225;SDS011;14732;51.074;3.788;2022-08-19T10:36:34;4.97;;;4.55;;
27225;SDS011;14732;51.074;3.788;2022-08-19T10:39:02;5.25;;;4.13;;
27225;SDS011;14732;51.074;3.788;2022-08-19T10:41:31;5.10;;;4.43;;
27225;SDS011;14732;51.074;3.788;2022-08-19T10:43:59;6.40;;;4.28;;
27225;SDS011;14732;51.074;3.788;2022-08-19T10:46:30;7.05;;;3.78;;
27225;SDS011;14732;51.074;3.788;2022-08-19T10:48:58;4.68;;;3.45;;
27225;SDS011;14732;51.074;3.788;2022-08-19T10:51:24;3.63;;;3.33;;
27225;SDS011;14732;51.074;3.788;2022-08-19T10:54:26;8.30;;;3.30;;
27225;SDS011;14732;51.074;3.788;2022-08-19T10:57:12;4.30;;;3.10;;
27225;SDS011;14732;51.074;3.788;2022-08-19T10:59:38;3.75;;;3.25;;
27225;SDS011;14732;51.074;3.788;2022-08-19T11:02:05;4.05;;;3.20;;
27225;SDS011;14732;51.074;3.788;2022-08-19T11:04:34;6.22;;;3.42;;
27225;SDS011;14732;51.074;3.788;2022-08-19T11:07:02;5.45;;;3.53;;
27225;SDS011;14732;51.074;3.788;2022-08-19T11:09:29;3.85;;;3.38;;
27225;SDS011;14732;51.074;3.788;2022-08-19T11:11:56;5.88;;;3.47;;
27225;SDS011;14732;51.074;3.788;2022-08-19T11:14:21;6.57;;;3.38;;
27225;SDS011;14732;51.074;3.788;2022-08-19T11:16:49;4.35;;;3.95;;
27225;SDS011;14732;51.074;3.788;2022-08-19T11:19:15;7.78;;;4.10;;
27225;SDS011;14732;51.074;3.788;2022-08-19T11:21:44;4.20;;;3.33;;
27225;SDS011;14732;51.074;3.788;2022-08-19T11:24:14;3.90;;;3.05;;
27225;SDS011;14732;51.074;3.788;2022-08-19T11:29:09;3.15;;;2.63;;
27225;SDS011;14732;51.074;3.788;2022-08-19T11:31:39;5.20;;;3.10;;
27225;SDS011;14732;51.074;3.788;2022-08-19T11:34:09;6.38;;;3.95;;
27225;SDS011;14732;51.074;3.788;2022-08-19T11:36:37;6.65;;;4.72;;
27225;SDS011;14732;51.074;3.788;2022-08-19T11:39:05;4.70;;;3.70;;
27225;SDS011;14732;51.074;3.788;2022-08-19T11:41:33;7.35;;;3.08;;
27225;SDS011;14732;51.074;3.788;2022-08-19T11:43:59;3.67;;;2.50;;
27225;SDS011;14732;51.074;3.788;2022-08-19T11:46:26;4.50;;;2.22;;
27225;SDS011;14732;51.074;3.788;2022-08-19T11:48:55;2.85;;;1.70;;
27225;SDS011;14732;51.074;3.788;2022-08-19T11:51:22;2.28;;;1.75;;
27225;SDS011;14732;51.074;3.788;2022-08-19T11:53:56;2.00;;;1.65;;
27225;SDS011;14732;51.074;3.788;2022-08-19T11:56:23;2.10;;;1.90;;
27225;SDS011;14732;51.074;3.788;2022-08-19T11:58:50;3.72;;;2.50;;
27225;SDS011;14732;51.074;3.788;2022-08-19T12:01:17;3.75;;;2.00;;
27225;SDS011;14732;51.074;3.788;2022-08-19T12:03:45;2.10;;;1.48;;
27225;SDS011;14732;51.074;3.788;2022-08-19T12:06:14;4.55;;;1.55;;
27225;SDS011;14732;51.074;3.788;2022-08-19T12:08:41;2.00;;;1.40;;
27225;SDS011;14732;51.074;3.788;2022-08-19T12:11:08;1.50;;;1.15;;
27225;SDS011;14732;51.074;3.788;2022-08-19T12:13:35;2.55;;;1.20;;
27225;SDS011;14732;51.074;3.788;2022-08-19T12:16:14;1.33;;;0.85;;
27225;SDS011;14732;51.074;3.788;2022-08-19T12:18:42;1.42;;;0.70;;
27225;SDS011;14732;51.074;3.788;2022-08-19T12:21:15;4.65;;;1.20;;
27225;SDS011;14732;51.074;3.788;2022-08-19T12:23:46;7.35;;;1.10;;
27225;SDS011;14732;51.074;3.788;2022-08-19T12:26:13;1.30;;;1.13;;
27225;SDS011;14732;51.074;3.788;2022-08-19T12:28:39;1.90;;;1.10;;
27225;SDS011;14732;51.074;3.788;2022-08-19T12:31:06;1.25;;;1.10;;
27225;SDS011;14732;51.074;3.788;2022-08-19T12:33:32;2.35;;;1.20;;
27225;SDS011;14732;51.074;3.788;2022-08-19T12:36:01;2.38;;;1.75;;
27225;SDS011;14732;51.074;3.788;2022-08-19T12:38:29;1.55;;;1.42;;
27225;SDS011;14732;51.074;3.788;2022-08-19T12:40:55;4.55;;;1.65;;
27225;SDS011;14732;51.074;3.788;2022-08-19T12:43:20;3.53;;;2.00;;
27225;SDS011;14732;51.074;3.788;2022-08-19T12:45:46;5.05;;;2.20;;
27225;SDS011;14732;51.074;3.788;2022-08-19T12:48:12;2.53;;;2.33;;
27225;SDS011;14732;51.074;3.788;2022-08-19T12:50:43;3.33;;;1.50;;
27225;SDS011;14732;51.074;3.788;2022-08-19T12:53:10;3.10;;;1.40;;
27225;SDS011;14732;51.074;3.788;2022-08-19T12:55:37;4.13;;;1.40;;
27225;SDS011;14732;51.074;3.788;2022-08-19T12:58:02;4.53;;;1.00;;
27225;SDS011;14732;51.074;3.788;2022-08-19T13:00:28;1.30;;;1.00;;
27225;SDS011;14732;51.074;3.788;2022-08-19T13:02:55;2.25;;;1.30;;
27225;SDS011;14732;51.074;3.788;2022-08-19T13:05:25;2.53;;;1.50;;
27225;SDS011;14732;51.074;3.788;2022-08-19T13:07:53;2.85;;;1.20;;
27225;SDS011;14732;51.074;3.788;2022-08-19T13:10:25;3.50;;;1.27;;
27225;SDS011;14732;51.074;3.788;2022-08-19T13:12:53;4.57;;;1.27;;
27225;SDS011;14732;51.074;3.788;2022-08-19T13:15:19;2.55;;;1.50;;
27225;SDS011;14732;51.074;3.788;2022-08-19T13:17:48;3.80;;;1.50;;
27225;SDS011;14732;51.074;3.788;2022-08-19T13:20:15;2.47;;;1.30;;
27225;SDS011;14732;51.074;3.788;2022-08-19T13:22:43;2.22;;;1.30;;
27225;SDS011;14732;51.074;3.788;2022-08-19T13:25:10;5.15;;;1.70;;
27225;SDS011;14732;51.074;3.788;2022-08-19T13:27:37;3.55;;;1.40;;
27225;SDS011;14732;51.074;3.788;2022-08-19T13:30:03;6.22;;;1.45;;
27225;SDS011;14732;51.074;3.788;2022-08-19T13:32:48;14.80;;;1.52;;
27225;SDS011;14732;51.074;3.788;2022-08-19T13:35:32;9.90;;;1.23;;
27225;SDS011;14732;51.074;3.788;2022-08-19T13:37:57;11.27;;;2.00;;
27225;SDS011;14732;51.074;3.788;2022-08-19T13:40:24;10.13;;;2.05;;
27225;SDS011;14732;51.074;3.788;2022-08-19T13:42:52;5.05;;;1.20;;
27225;SDS011;14732;51.074;3.788;2022-08-19T13:45:19;6.45;;;1.42;;
27225;SDS011;14732;51.074;3.788;2022-08-19T13:47:47;3.92;;;1.30;;
27225;SDS011;14732;51.074;3.788;2022-08-19T13:50:16;2.38;;;1.30;;
27225;SDS011;14732;51.074;3.788;2022-08-19T13:52:44;1.60;;;0.90;;
27225;SDS011;14732;51.074;3.788;2022-08-19T13:55:10;3.30;;;1.00;;
27225;SDS011;14732;51.074;3.788;2022-08-19T13:57:36;7.05;;;1.00;;
27225;SDS011;14732;51.074;3.788;2022-08-19T14:00:10;1.88;;;0.80;;
27225;SDS011;14732;51.074;3.788;2022-08-19T14:02:39;3.30;;;1.45;;
27225;SDS011;14732;51.074;3.788;2022-08-19T14:05:06;2.10;;;0.95;;
27225;SDS011;14732;51.074;3.788;2022-08-19T14:07:33;2.63;;;0.98;;
27225;SDS011;14732;51.074;3.788;2022-08-19T14:09:59;5.80;;;1.50;;
27225;SDS011;14732;51.074;3.788;2022-08-19T14:12:25;6.45;;;1.88;;
27225;SDS011;14732;51.074;3.788;2022-08-19T14:14:51;4.30;;;2.78;;
27225;SDS011;14732;51.074;3.788;2022-08-19T14:17:16;2.60;;;2.30;;
27225;SDS011;14732;51.074;3.788;2022-08-19T14:19:42;5.38;;;2.80;;
27225;SDS011;14732;51.074;3.788;2022-08-19T14:22:08;4.93;;;4.45;;
27225;SDS011;14732;51.074;3.788;2022-08-19T14:24:34;11.75;;;5.28;;
27225;SDS011;14732;51.074;3.788;2022-08-19T14:27:02;7.28;;;5.35;;
27225;SDS011;14732;51.074;3.788;2022-08-19T14:29:28;5.35;;;4.82;;
27225;SDS011;14732;51.074;3.788;2022-08-19T14:31:54;7.45;;;4.90;;
27225;SDS011;14732;51.074;3.788;2022-08-19T14:36:50;7.97;;;6.68;;
27225;SDS011;14732;51.074;3.788;2022-08-19T14:39:15;8.70;;;6.30;;
27225;SDS011;14732;51.074;3.788;2022-08-19T14:41:41;9.73;;;6.95;;
27225;SDS011;14732;51.074;3.788;2022-08-19T14:44:07;8.93;;;6.30;;
27225;SDS011;14732;51.074;3.788;2022-08-19T14:46:37;8.43;;;5.68;;
27225;SDS011;14732;51.074;3.788;2022-08-19T14:49:03;8.05;;;5.40;;
27225;SDS011;14732;51.074;3.788;2022-08-19T14:51:29;6.45;;;5.35;;
27225;SDS011;14732;51.074;3.788;2022-08-19T14:53:55;7.38;;;5.32;;
27225;SDS011;14732;51.074;3.788;2022-08-19T14:56:23;9.15;;;5.65;;
27225;SDS011;14732;51.074;3.788;2022-08-19T14:58:50;8.10;;;5.47;;
27225;SDS011;14732;51.074;3.788;2022-08-19T15:01:17;7.05;;;4.93;;